createdAt,value
2018-09-10T00:01:34.745Z,5.40
2018-09-10T00:04:01.135Z,5.00
2018-09-10T00:06:27.459Z,5.20
2018-09-10T00:08:53.788Z,5.07
2018-09-10T00:11:20.127Z,5.40
2018-09-10T00:13:46.488Z,5.17
2018-09-10T00:16:12.827Z,4.90
2018-09-10T00:18:39.191Z,5.00
2018-09-10T00:21:05.515Z,5.17
2018-09-10T00:23:31.901Z,4.90
2018-09-10T00:25:58.235Z,5.67
2018-09-10T00:28:24.602Z,5.87
2018-09-10T00:30:50.939Z,5.87
2018-09-10T00:33:17.274Z,5.57
2018-09-10T00:35:43.656Z,5.00
2018-09-10T00:38:09.991Z,5.40
2018-09-10T00:40:36.399Z,5.00
2018-09-10T00:43:02.772Z,5.00
2018-09-10T00:45:29.103Z,5.50
2018-09-10T00:47:55.473Z,5.47
2018-09-10T00:50:21.836Z,5.43
2018-09-10T00:52:48.166Z,5.13
2018-09-10T00:55:14.505Z,5.10
2018-09-10T00:57:40.847Z,5.53
2018-09-10T01:00:07.228Z,5.47
2018-09-10T01:02:33.610Z,5.83
2018-09-10T01:04:59.938Z,6.03
2018-09-10T01:07:26.286Z,5.30
2018-09-10T01:09:52.628Z,4.90
2018-09-10T01:12:18.953Z,4.83
2018-09-10T01:14:45.320Z,5.10
2018-09-10T01:17:11.643Z,5.27
2018-09-10T01:19:38.015Z,5.60
2018-09-10T01:22:04.376Z,5.30
2018-09-10T01:24:30.738Z,4.77
2018-09-10T01:26:57.072Z,4.97
2018-09-10T01:29:23.448Z,4.87
2018-09-10T01:31:49.796Z,5.17
2018-09-10T01:34:16.159Z,5.10
2018-09-10T01:36:42.512Z,5.00
2018-09-10T01:39:08.869Z,5.23
2018-09-10T01:41:35.229Z,5.40
2018-09-10T01:44:01.597Z,5.00
2018-09-10T01:46:27.961Z,5.00
2018-09-10T01:48:54.293Z,5.00
2018-09-10T01:51:20.682Z,5.00
2018-09-10T01:53:47.001Z,5.10
2018-09-10T01:56:13.340Z,4.77
2018-09-10T01:58:39.680Z,4.70
2018-09-10T02:01:06.057Z,4.47
2018-09-10T02:03:32.399Z,4.43
2018-09-10T02:05:58.780Z,4.27
2018-09-10T02:08:25.140Z,4.90
2018-09-10T02:10:51.487Z,4.80
2018-09-10T02:13:17.803Z,5.10
2018-09-10T02:15:44.139Z,4.50
2018-09-10T02:18:10.469Z,4.80
2018-09-10T02:20:36.808Z,5.20
2018-09-10T02:23:03.164Z,5.10
2018-09-10T02:25:29.501Z,4.90
2018-09-10T02:27:55.914Z,4.60
2018-09-10T02:30:22.244Z,4.90
2018-09-10T02:32:48.630Z,4.80
2018-09-10T02:35:14.949Z,5.13
2018-09-10T02:37:41.943Z,4.77
2018-09-10T02:40:08.304Z,5.30
2018-09-10T02:42:34.630Z,4.90
2018-09-10T02:45:01.003Z,4.70
2018-09-10T02:47:27.339Z,4.47
2018-09-10T02:49:53.747Z,5.17
2018-09-10T02:52:20.147Z,4.70
2018-09-10T02:54:46.596Z,5.20
2018-09-10T02:57:12.951Z,5.00
2018-09-10T02:59:39.335Z,5.20
2018-09-10T03:02:05.680Z,5.20
2018-09-10T03:04:32.003Z,5.10
2018-09-10T03:06:58.341Z,5.50
2018-09-10T03:09:24.683Z,4.80
2018-09-10T03:11:51.017Z,5.00
2018-09-10T03:14:17.469Z,4.67
2018-09-10T03:16:43.799Z,5.17
2018-09-10T03:19:10.193Z,5.10
2018-09-10T03:21:36.546Z,4.80
2018-09-10T03:24:02.966Z,5.20
2018-09-10T03:26:29.297Z,5.17
2018-09-10T03:28:55.688Z,5.10
2018-09-10T03:31:22.024Z,4.97
2018-09-10T03:33:48.354Z,5.50
2018-09-10T03:36:14.685Z,5.50
2018-09-10T03:38:41.015Z,5.57
2018-09-10T03:41:07.448Z,4.83
2018-09-10T03:43:34.499Z,5.50
2018-09-10T03:46:00.846Z,5.37
2018-09-10T03:48:27.188Z,5.03
2018-09-10T03:50:53.532Z,5.30
2018-09-10T03:53:19.903Z,5.40
2018-09-10T03:55:46.232Z,5.40
2018-09-10T03:58:12.722Z,4.77
2018-09-10T04:00:39.048Z,5.77
2018-09-10T04:03:05.519Z,5.47
2018-09-10T04:05:32.019Z,5.60
2018-09-10T04:07:58.341Z,5.40
2018-09-10T04:10:24.695Z,5.33
2018-09-10T04:12:51.017Z,5.33
2018-09-10T04:15:17.336Z,5.60
2018-09-10T04:17:43.668Z,5.10
2018-09-10T04:20:10.063Z,5.10
2018-09-10T04:22:36.393Z,5.30
2018-09-10T04:25:02.725Z,5.10
2018-09-10T04:27:29.082Z,5.17
2018-09-10T04:29:55.524Z,5.30
2018-09-10T04:32:21.914Z,5.40
2018-09-10T04:34:48.247Z,4.77
2018-09-10T04:37:14.620Z,5.73
2018-09-10T04:39:40.949Z,4.77
2018-09-10T04:42:07.401Z,5.10
2018-09-10T04:44:33.811Z,4.67
2018-09-10T04:47:00.158Z,5.60
2018-09-10T04:49:26.525Z,5.13
2018-09-10T04:51:52.928Z,5.43
2018-09-10T04:54:19.257Z,5.30
2018-09-10T04:56:45.835Z,5.80
2018-09-10T04:59:12.205Z,6.00
2018-09-10T05:01:38.544Z,5.43
2018-09-10T05:04:04.917Z,5.63
2018-09-10T05:06:31.269Z,4.93
2018-09-10T05:08:57.655Z,5.70
2018-09-10T05:11:23.999Z,5.43
2018-09-10T05:13:50.336Z,4.80
2018-09-10T05:16:16.688Z,5.70
2018-09-10T05:18:43.016Z,5.70
2018-09-10T05:21:09.382Z,5.30
2018-09-10T05:23:35.810Z,6.30
2018-09-10T05:26:02.186Z,5.70
2018-09-10T05:28:28.536Z,5.97
2018-09-10T05:30:54.935Z,5.33
2018-09-10T05:33:21.257Z,5.60
2018-09-10T05:35:47.599Z,5.50
2018-09-10T05:38:14.009Z,5.90
2018-09-10T05:40:40.413Z,6.43
2018-09-10T05:43:06.785Z,5.20
2018-09-10T05:45:33.209Z,5.30
2018-09-10T05:47:59.672Z,5.30
2018-09-10T05:50:26.019Z,5.60
2018-09-10T05:52:52.367Z,5.63
2018-09-10T05:55:18.747Z,6.00
2018-09-10T05:57:45.088Z,5.80
2018-09-10T06:00:11.433Z,6.43
2018-09-10T06:02:37.764Z,5.73
2018-09-10T06:05:04.097Z,5.40
2018-09-10T06:07:30.493Z,5.10
2018-09-10T06:09:56.860Z,6.30
2018-09-10T06:12:23.441Z,5.80
2018-09-10T06:14:49.793Z,6.10
2018-09-10T06:17:16.185Z,6.40
2018-09-10T06:19:42.559Z,5.93
2018-09-10T06:22:08.895Z,5.70
2018-09-10T06:24:35.252Z,6.30
2018-09-10T06:27:01.603Z,6.57
2018-09-10T06:29:27.939Z,5.73
2018-09-10T06:31:54.316Z,5.93
2018-09-10T06:34:20.718Z,6.23
2018-09-10T06:36:47.106Z,6.60
2018-09-10T06:39:13.459Z,6.90
2018-09-10T06:41:39.814Z,6.20
2018-09-10T06:44:06.151Z,6.47
2018-09-10T06:46:32.787Z,6.07
2018-09-10T06:48:59.228Z,5.67
2018-09-10T06:51:25.616Z,6.53
2018-09-10T06:53:51.941Z,6.07
2018-09-10T06:56:19.186Z,6.50
2018-09-10T06:58:46.098Z,6.33
2018-09-10T07:01:12.718Z,6.57
2018-09-10T07:03:39.919Z,6.83
2018-09-10T07:06:06.625Z,6.10
2018-09-10T07:08:33.438Z,5.73
2018-09-10T07:10:59.886Z,7.10
2018-09-10T07:13:26.217Z,7.20
2018-09-10T07:15:53.089Z,7.00
2018-09-10T07:18:19.584Z,7.83
2018-09-10T07:20:46.343Z,6.53
2018-09-10T07:23:13.207Z,6.80
2018-09-10T07:25:39.809Z,7.33
2018-09-10T07:28:06.236Z,8.20
2018-09-10T07:30:32.564Z,9.40
2018-09-10T07:32:58.976Z,7.67
2018-09-10T07:35:25.532Z,7.37
2018-09-10T07:37:51.897Z,7.70
2018-09-10T07:40:18.264Z,6.70
2018-09-10T07:42:44.704Z,7.97
2018-09-10T07:45:11.863Z,7.70
2018-09-10T07:47:38.890Z,7.40
2018-09-10T07:50:05.828Z,7.30
2018-09-10T07:52:32.436Z,7.07
2018-09-10T07:54:59.171Z,6.93
2018-09-10T07:57:25.803Z,6.50
2018-09-10T07:59:52.216Z,7.07
2018-09-10T08:02:18.798Z,6.20
2018-09-10T08:04:45.184Z,7.73
2018-09-10T08:07:11.521Z,6.20
2018-09-10T08:09:37.942Z,6.60
2018-09-10T08:12:04.272Z,6.70
2018-09-10T08:14:30.756Z,7.73
2018-09-10T08:16:57.083Z,7.30
2018-09-10T08:19:23.408Z,6.13
2018-09-10T08:21:50.027Z,6.37
2018-09-10T08:24:16.645Z,7.07
2018-09-10T08:26:43.095Z,6.90
2018-09-10T08:29:09.730Z,7.50
2018-09-10T08:31:36.246Z,8.00
2018-09-10T08:34:02.935Z,7.90
2018-09-10T08:36:29.566Z,7.20
2018-09-10T08:38:56.204Z,7.30
2018-09-10T08:41:22.587Z,7.10
2018-09-10T08:43:49.002Z,7.37
2018-09-10T08:46:15.557Z,7.10
2018-09-10T08:48:41.967Z,7.70
2018-09-10T08:51:08.422Z,7.40
2018-09-10T08:53:34.771Z,7.37
2018-09-10T08:56:01.497Z,7.30
2018-09-10T08:58:27.953Z,7.67
2018-09-10T09:00:54.332Z,6.70
2018-09-10T09:03:20.741Z,7.53
2018-09-10T09:05:47.237Z,6.40
2018-09-10T09:08:13.703Z,6.57
2018-09-10T09:10:40.058Z,7.57
2018-09-10T09:13:06.495Z,7.40
2018-09-10T09:15:32.868Z,6.50
2018-09-10T09:17:59.243Z,7.10
2018-09-10T09:20:25.620Z,6.17
2018-09-10T09:22:52.050Z,7.07
2018-09-10T09:25:18.411Z,6.40
2018-09-10T09:27:44.782Z,6.43
2018-09-10T09:30:11.219Z,6.20
2018-09-10T09:32:37.552Z,5.90
2018-09-10T09:35:03.903Z,5.73
2018-09-10T09:37:30.291Z,5.87
2018-09-10T09:39:56.663Z,5.90
2018-09-10T09:42:23.023Z,7.33
2018-09-10T09:44:49.409Z,7.00
2018-09-10T09:47:15.761Z,6.13
2018-09-10T09:49:42.106Z,5.70
2018-09-10T09:52:08.561Z,6.27
2018-09-10T09:54:34.916Z,6.80
2018-09-10T09:57:01.238Z,6.07
2018-09-10T09:59:27.637Z,6.23
2018-09-10T10:01:53.996Z,6.80
2018-09-10T10:04:20.370Z,6.07
2018-09-10T10:06:46.726Z,6.10
2018-09-10T10:09:13.071Z,6.10
2018-09-10T10:11:40.222Z,5.53
2018-09-10T10:14:06.541Z,7.17
2018-09-10T10:16:32.947Z,7.17
2018-09-10T10:18:59.321Z,6.50
2018-09-10T10:21:25.817Z,6.57
2018-09-10T10:23:52.168Z,6.50
2018-09-10T10:26:18.518Z,6.90
2018-09-10T10:28:44.897Z,7.23
2018-09-10T10:31:11.251Z,7.40
2018-09-10T10:33:37.659Z,6.60
2018-09-10T10:36:04.045Z,6.40
2018-09-10T10:38:30.545Z,6.30
2018-09-10T10:40:56.915Z,6.20
2018-09-10T10:43:23.247Z,5.97
2018-09-10T10:45:49.644Z,7.00
2018-09-10T10:48:16.006Z,6.30
2018-09-10T10:50:42.486Z,6.50
2018-09-10T10:53:09.212Z,7.60
2018-09-10T10:55:35.668Z,7.70
2018-09-10T10:58:02.098Z,6.80
2018-09-10T11:00:28.451Z,7.40
2018-09-10T11:02:54.836Z,6.93
2018-09-10T11:05:21.220Z,6.40
2018-09-10T11:07:47.570Z,6.60
2018-09-10T11:10:13.957Z,7.80
2018-09-10T11:12:40.286Z,6.00
2018-09-10T11:15:06.647Z,5.90
2018-09-10T11:17:32.987Z,6.43
2018-09-10T11:19:59.371Z,6.80
2018-09-10T11:22:25.802Z,6.20
2018-09-10T11:24:54.241Z,6.83
2018-09-10T11:27:20.683Z,6.70
2018-09-10T11:29:47.079Z,6.50
2018-09-10T11:32:13.416Z,6.57
2018-09-10T11:34:39.886Z,6.90
2018-09-10T11:37:06.227Z,5.73
2018-09-10T11:39:32.614Z,6.50
2018-09-10T11:41:58.945Z,6.13
2018-09-10T11:44:25.287Z,6.80
2018-09-10T11:46:51.688Z,5.80
2018-09-10T11:49:18.051Z,6.33
2018-09-10T11:51:44.427Z,5.87
2018-09-10T11:54:10.804Z,6.00
2018-09-10T11:56:37.336Z,6.27
2018-09-10T11:59:03.768Z,5.70
2018-09-10T12:01:30.120Z,5.90
2018-09-10T12:03:56.469Z,6.83
2018-09-10T12:06:22.803Z,6.20
2018-09-10T12:08:49.192Z,5.70
2018-09-10T12:11:15.577Z,5.87
2018-09-10T12:13:41.989Z,6.37
2018-09-10T12:16:08.379Z,5.87
2018-09-10T12:18:34.756Z,5.57
2018-09-10T12:21:01.145Z,5.70
2018-09-10T12:23:27.494Z,6.50
2018-09-10T12:25:53.856Z,6.03
2018-09-10T12:28:20.188Z,6.00
2018-09-10T12:30:46.547Z,6.30
2018-09-10T12:33:12.971Z,6.70
2018-09-10T12:35:39.353Z,6.40
2018-09-10T12:38:05.732Z,5.70
2018-09-10T12:40:32.202Z,5.77
2018-09-10T12:42:58.556Z,6.27
2018-09-10T12:45:24.927Z,6.70
2018-09-10T12:47:51.282Z,6.00
2018-09-10T12:50:17.660Z,5.97
2018-09-10T12:52:43.993Z,5.90
2018-09-10T12:55:10.370Z,5.87
2018-09-10T12:57:36.703Z,6.40
2018-09-10T13:00:03.049Z,6.47
2018-09-10T13:02:29.481Z,5.73
2018-09-10T13:04:55.852Z,6.30
2018-09-10T13:07:22.210Z,6.70
2018-09-10T13:09:48.583Z,6.10
2018-09-10T13:12:14.921Z,5.43
2018-09-10T13:14:41.344Z,5.70
2018-09-10T13:17:07.705Z,6.30
2018-09-10T13:19:34.038Z,5.80
2018-09-10T13:22:00.497Z,5.43
2018-09-10T13:24:26.853Z,5.97
2018-09-10T13:26:53.300Z,4.97
2018-09-10T13:29:19.694Z,5.77
2018-09-10T13:31:46.054Z,5.30
2018-09-10T13:34:12.431Z,6.23
2018-09-10T13:36:38.830Z,5.57
2018-09-10T13:39:05.140Z,5.80
2018-09-10T13:41:31.525Z,7.00
2018-09-10T13:43:57.852Z,5.43
2018-09-10T13:46:24.250Z,6.00
2018-09-10T13:48:50.579Z,5.87
2018-09-10T13:51:16.923Z,5.50
2018-09-10T13:53:43.272Z,6.10
2018-09-10T13:56:09.749Z,6.07
2018-09-10T13:58:36.429Z,5.40
2018-09-10T14:01:03.105Z,5.70
2018-09-10T14:03:29.722Z,6.10
2018-09-10T14:05:56.114Z,7.47
2018-09-10T14:08:22.456Z,5.60
2018-09-10T14:10:48.866Z,5.40
2018-09-10T14:13:15.148Z,5.60
2018-09-10T14:15:41.498Z,5.10
2018-09-10T14:18:07.908Z,5.70
2018-09-10T14:20:34.240Z,6.10
2018-09-10T14:23:00.718Z,5.10
2018-09-10T14:25:28.094Z,5.63
2018-09-10T14:27:54.597Z,5.80
2018-09-10T14:30:20.936Z,5.67
2018-09-10T14:32:47.300Z,5.60
2018-09-10T14:35:13.655Z,6.00
2018-09-10T14:37:40.182Z,5.20
2018-09-10T14:40:06.524Z,6.03
2018-09-10T14:42:32.905Z,5.63
2018-09-10T14:44:59.272Z,5.50
2018-09-10T14:47:25.620Z,5.90
2018-09-10T14:49:52.014Z,5.40
2018-09-10T14:52:18.349Z,5.03
2018-09-10T14:54:44.678Z,5.10
2018-09-10T14:57:11.094Z,5.57
2018-09-10T14:59:37.492Z,5.53
2018-09-10T15:02:04.071Z,4.90
2018-09-10T15:04:30.452Z,5.30
2018-09-10T15:06:56.837Z,5.63
2018-09-10T15:09:23.172Z,5.37
2018-09-10T15:11:49.516Z,4.50
2018-09-10T15:14:15.853Z,5.20
2018-09-10T15:16:42.188Z,5.20
2018-09-10T15:19:08.857Z,5.40
2018-09-10T15:21:35.176Z,4.97
2018-09-10T15:24:01.606Z,5.33
2018-09-10T15:26:27.936Z,5.20
2018-09-10T15:28:54.426Z,4.80
2018-09-10T15:31:20.775Z,4.70
2018-09-10T15:33:47.168Z,5.03
2018-09-10T15:36:13.627Z,4.93
2018-09-10T15:38:39.957Z,4.47
2018-09-10T15:41:06.325Z,5.07
2018-09-10T15:43:32.649Z,5.60
2018-09-10T15:45:59.029Z,5.00
2018-09-10T15:48:25.487Z,5.07
2018-09-10T15:50:51.869Z,7.03
2018-09-10T15:53:18.234Z,5.13
2018-09-10T15:55:44.646Z,4.87
2018-09-10T15:58:10.989Z,4.50
2018-09-10T16:00:37.330Z,4.67
2018-09-10T16:03:03.710Z,5.10
2018-09-10T16:05:30.074Z,4.80
2018-09-10T16:07:56.405Z,4.90
2018-09-10T16:10:22.736Z,4.73
2018-09-10T16:12:49.125Z,4.67
2018-09-10T16:15:15.463Z,4.87
2018-09-10T16:17:41.794Z,5.00
2018-09-10T16:20:08.124Z,4.60
2018-09-10T16:22:34.553Z,5.07
2018-09-10T16:25:00.908Z,5.30
2018-09-10T16:27:27.253Z,4.47
2018-09-10T16:29:53.638Z,4.53
2018-09-10T16:32:20.040Z,4.93
2018-09-10T16:34:46.606Z,4.30
2018-09-10T16:37:12.955Z,4.80
2018-09-10T16:39:39.282Z,4.20
2018-09-10T16:42:05.633Z,4.97
2018-09-10T16:44:31.963Z,4.10
2018-09-10T16:46:58.404Z,4.87
2018-09-10T16:49:24.731Z,5.13
2018-09-10T16:51:51.160Z,4.33
2018-09-10T16:54:17.595Z,4.60
2018-09-10T16:56:43.868Z,4.30
2018-09-10T16:59:10.196Z,4.40
2018-09-10T17:01:36.564Z,4.90
2018-09-10T17:04:02.957Z,4.57
2018-09-10T17:06:29.300Z,4.77
2018-09-10T17:08:55.637Z,4.63
2018-09-10T17:11:21.992Z,4.20
2018-09-10T17:13:48.325Z,4.90
2018-09-10T17:16:14.667Z,5.23
2018-09-10T17:18:41.042Z,4.90
2018-09-10T17:21:07.464Z,6.10
2018-09-10T17:23:33.829Z,4.67
2018-09-10T17:26:00.262Z,5.20
2018-09-10T17:28:26.588Z,5.63
2018-09-10T17:30:52.946Z,5.00
2018-09-10T17:33:19.276Z,5.23
2018-09-10T17:35:45.605Z,4.90
2018-09-10T17:38:11.983Z,5.20
2018-09-10T17:40:38.307Z,5.43
2018-09-10T17:43:04.641Z,5.70
2018-09-10T17:45:30.975Z,5.10
2018-09-10T17:47:57.342Z,5.17
2018-09-10T17:50:23.707Z,5.10
2018-09-10T17:52:50.034Z,4.83
2018-09-10T17:55:16.380Z,5.70
2018-09-10T17:57:42.702Z,5.50
2018-09-10T18:00:09.036Z,5.57
2018-09-10T18:02:35.459Z,5.50
2018-09-10T18:05:01.793Z,5.30
2018-09-10T18:07:28.121Z,5.47
2018-09-10T18:09:54.507Z,5.70
2018-09-10T18:12:20.855Z,5.00
2018-09-10T18:14:47.223Z,5.53
2018-09-10T18:17:13.583Z,5.03
2018-09-10T18:19:39.907Z,5.23
2018-09-10T18:22:06.271Z,4.80
2018-09-10T18:24:32.602Z,5.10
2018-09-10T18:26:58.940Z,5.50
2018-09-10T18:29:25.284Z,5.27
2018-09-10T18:31:51.603Z,5.20
2018-09-10T18:34:17.987Z,5.23
2018-09-10T18:36:44.322Z,5.20
2018-09-10T18:39:10.659Z,6.20
2018-09-10T18:41:37.094Z,4.60
2018-09-10T18:44:03.426Z,5.50
2018-09-10T18:46:29.767Z,5.17
2018-09-10T18:48:56.126Z,5.27
2018-09-10T18:51:22.451Z,5.70
2018-09-10T18:53:48.920Z,5.10
2018-09-10T18:56:15.241Z,5.60
2018-09-10T18:58:41.578Z,5.60
2018-09-10T19:01:08.058Z,5.67
2018-09-10T19:03:34.338Z,5.90
2018-09-10T19:06:00.659Z,5.40
2018-09-10T19:08:26.984Z,5.07
2018-09-10T19:10:53.320Z,5.20
2018-09-10T19:13:19.652Z,5.17
2018-09-10T19:15:45.985Z,5.20
2018-09-10T19:18:12.312Z,5.23
2018-09-10T19:20:38.641Z,5.07
2018-09-10T19:23:05.012Z,4.73
2018-09-10T19:25:31.370Z,5.37
2018-09-10T19:27:57.704Z,4.60
2018-09-10T19:30:24.053Z,4.97
2018-09-10T19:32:50.391Z,4.50
2018-09-10T19:35:16.723Z,5.20
2018-09-10T19:37:43.115Z,4.93
2018-09-10T19:40:09.534Z,5.03
2018-09-10T19:42:35.899Z,5.40
2018-09-10T19:45:02.462Z,5.57
2018-09-10T19:47:28.799Z,4.67
2018-09-10T19:49:55.125Z,4.43
2018-09-10T19:52:21.456Z,4.43
2018-09-10T19:54:47.787Z,4.73
2018-09-10T19:57:14.202Z,5.20
2018-09-10T19:59:40.527Z,5.40
2018-09-10T20:02:06.853Z,5.57
2018-09-10T20:04:33.242Z,5.67
2018-09-10T20:06:59.572Z,5.43
2018-09-10T20:09:25.944Z,5.53
2018-09-10T20:11:52.271Z,5.77
2018-09-10T20:14:18.606Z,5.20
2018-09-10T20:16:44.969Z,5.87
2018-09-10T20:19:11.336Z,5.30
2018-09-10T20:21:37.655Z,6.00
2018-09-10T20:24:04.000Z,4.73
2018-09-10T20:26:30.359Z,4.40
2018-09-10T20:28:56.688Z,5.17
2018-09-10T20:31:23.028Z,5.50
2018-09-10T20:33:49.355Z,5.70
2018-09-10T20:36:15.711Z,5.37
2018-09-10T20:38:42.087Z,5.07
2018-09-10T20:41:08.489Z,5.20
2018-09-10T20:43:34.820Z,5.60
2018-09-10T20:46:01.158Z,5.50
2018-09-10T20:48:27.539Z,5.47
2018-09-10T20:50:53.872Z,5.37
2018-09-10T20:53:20.188Z,5.00
2018-09-10T20:55:46.510Z,5.73
2018-09-10T20:58:12.834Z,5.20
2018-09-10T21:00:39.157Z,5.03
2018-09-10T21:03:05.585Z,5.40
2018-09-10T21:05:31.916Z,5.50
2018-09-10T21:07:58.245Z,5.57
2018-09-10T21:10:24.598Z,4.90
2018-09-10T21:12:50.931Z,5.23
2018-09-10T21:15:17.298Z,5.20
2018-09-10T21:17:43.775Z,5.80
2018-09-10T21:20:10.125Z,5.30
2018-09-10T21:22:36.472Z,6.13
2018-09-10T21:25:02.809Z,5.00
2018-09-10T21:27:29.154Z,5.80
2018-09-10T21:29:55.514Z,5.27
2018-09-10T21:32:21.848Z,5.30
2018-09-10T21:34:48.210Z,5.33
2018-09-10T21:37:14.540Z,5.47
2018-09-10T21:39:40.877Z,5.57
2018-09-10T21:42:07.201Z,5.87
2018-09-10T21:44:33.538Z,5.40
2018-09-10T21:46:59.879Z,5.00
2018-09-10T21:49:26.229Z,5.67
2018-09-10T21:51:52.616Z,6.10
2018-09-10T21:54:18.964Z,6.03
2018-09-10T21:56:45.292Z,5.90
2018-09-10T21:59:11.671Z,5.67
2018-09-10T22:01:38.020Z,5.40
2018-09-10T22:04:04.398Z,5.47
2018-09-10T22:06:30.756Z,5.70
2018-09-10T22:08:57.140Z,5.67
2018-09-10T22:11:23.486Z,6.00
2018-09-10T22:13:49.875Z,5.77
2018-09-10T22:16:16.191Z,5.00
2018-09-10T22:18:42.520Z,5.83
2018-09-10T22:21:08.925Z,5.80
2018-09-10T22:23:35.282Z,5.53
2018-09-10T22:26:01.604Z,6.07
2018-09-10T22:28:27.978Z,5.20
2018-09-10T22:30:54.341Z,5.70
2018-09-10T22:33:20.665Z,5.40
2018-09-10T22:35:46.995Z,5.77
2018-09-10T22:38:13.315Z,5.53
2018-09-10T22:40:39.684Z,5.50
2018-09-10T22:43:06.075Z,5.70
2018-09-10T22:45:32.404Z,5.73
2018-09-10T22:47:58.798Z,5.50
2018-09-10T22:50:25.124Z,5.50
2018-09-10T22:52:51.476Z,5.77
2018-09-10T22:55:17.846Z,5.10
2018-09-10T22:57:44.163Z,5.53
2018-09-10T23:00:10.534Z,5.07
2018-09-10T23:02:36.870Z,5.27
2018-09-10T23:05:03.248Z,5.37
2018-09-10T23:07:29.600Z,5.20
2018-09-10T23:09:55.968Z,5.37
2018-09-10T23:12:22.301Z,5.37
2018-09-10T23:14:48.633Z,5.20
2018-09-10T23:17:15.004Z,5.80
2018-09-10T23:19:41.380Z,5.10
2018-09-10T23:22:07.718Z,5.60
2018-09-10T23:24:34.201Z,5.57
2018-09-10T23:27:00.520Z,4.90
2018-09-10T23:29:26.883Z,5.73
2018-09-10T23:31:53.368Z,5.13
2018-09-10T23:34:19.727Z,5.00
2018-09-10T23:36:46.083Z,4.90
2018-09-10T23:39:12.416Z,5.40
2018-09-10T23:41:38.776Z,5.10
2018-09-10T23:44:05.116Z,5.07
2018-09-10T23:46:31.488Z,5.20
2018-09-10T23:48:57.885Z,5.33
2018-09-10T23:51:24.248Z,5.43
2018-09-10T23:53:50.576Z,5.30
2018-09-10T23:56:16.939Z,5.63
2018-09-10T23:58:43.304Z,5.83
